Terminal Aerodrome Forecast
Issued by NWS Bismarck, ND

Home | Current Version | Previous Version | Graphics & Text | Print | Product List | Glossary On
Versions: 1 2 3 4 5 6 7 8 9 10 11 12 13 14 15 16 17
000
FTUS43 KBIS 180500
TAFISN
TAF
KISN 180532Z 1806/1906 14009KT P6SM SCT004
      TEMPO 1806/1810 3SM BR BKN004
     FM181600 17010KT P6SM SCT150
     FM190300 24005KT P6SM BKN100=

USA.gov is the U.S. government's official web portal to all federal, state and local government web resources and services.